Latest Weather Observations for Meekatharra

IDW60801

Issued at 3:35 pm WST Sunday 21 September 2014 (issued every 30 minutes, with the page automatically refreshed every 10 minutes)

About weather observations | Map of weather stations | Latest weather observations for WA | Other Formats
Station Details ID: 007045 Name: MEEKATHARRA AIRPORT Lat: -26.61 Lon: 118.54 Height: 517.0 m
Data from the previous 72 hours. | See also: Recent months at Meekatharra
Date/Time
WST
Temp
°C
App
Temp
°C
Dew
Point
Rel
Hum
%
Delta-T
°C
Wind Press
QNH
hPa
Press
MSL
hPa
Rain
since 9 am
mm
Dir
 
Spd
km/h
Gust
km/h
Spd
kts
Gust
kts
21/03:30pm 31.7 18.2 -6.0 8 16.9 NNW 57 76 31 41 1010.3 - 0.0
21/03:00pm 32.6 19.3 -5.2 8 17.3 NNW 56 82 30 44 1010.6 1008.9 0.0
21/02:30pm 32.4 19.5 -5.4 8 17.2 NNW 54 74 29 40 1010.9 - 0.0
21/02:00pm 32.1 19.6 -4.7 9 16.9 NNW 52 72 28 39 1011.4 - 0.0
21/01:30pm 32.2 18.0 -4.9 9 17.0 NNW 61 82 33 44 1012.2 - 0.0
21/01:00pm 32.6 19.9 -3.6 9 17.0 NNW 54 78 29 42 1013.0 - 0.0
21/12:30pm 31.9 20.7 -0.8 12 16.0 NNW 48 74 26 40 1013.8 - 0.0
21/12:00pm 31.7 20.1 -0.5 12 15.8 NNW 50 72 27 39 1014.4 1012.7 0.0
21/11:30am 30.8 20.8 0.7 14 15.0 NNW 43 72 23 39 1014.9 - 0.0
21/11:01am 29.4 27.4 24.9 77 3.2 NNW 44 63 24 34 1015.8 - 0.0
21/11:00am 29.7 27.9 24.9 75 3.4 NNW 43 57 23 31 1015.8 - 0.0
21/10:36am 29.3 27.2 23.1 69 4.3 NNW 39 65 21 35 1016.2 - 0.0
21/10:30am 29.3 27.3 22.5 67 4.7 NNW 37 54 20 29 1016.3 - 0.0
21/10:23am 29.2 27.3 22.1 65 4.9 NNW 35 54 19 29 1016.3 - 0.0
21/10:00am 28.7 26.0 19.2 56 6.3 NW 32 46 17 25 1016.6 - 0.0
21/09:30am 27.9 24.2 16.9 51 7.0 NW 32 44 17 24 1017.1 - 0.0
21/09:00am 26.3 22.3 11.8 40 8.5 NNW 24 33 13 18 1017.4 1015.8 0.0
21/08:30am 25.1 20.4 5.9 29 10.1 N 20 26 11 14 1017.5 - 0.0
21/08:00am 23.4 19.0 2.9 26 10.1 N 15 22 8 12 1017.2 - 0.0
21/07:30am 21.7 17.4 1.0 25 9.7 NW 13 17 7 9 1017.2 - 0.0
21/07:00am 19.0 14.9 -0.2 27 8.6 NW 11 13 6 7 1017.1 - 0.0
21/06:30am 16.5 12.7 -0.4 31 7.4 WNW 9 11 5 6 1016.7 - 0.0
21/06:00am 15.9 11.7 -1.2 31 7.3 WNW 11 11 6 6 1016.3 1014.6 0.0
21/05:30am 16.0 12.1 -1.3 30 7.4 WNW 9 11 5 6 1016.2 - 0.0
21/05:00am 16.3 12.4 -1.2 30 7.5 WNW 9 11 5 6 1015.8 - 0.0
21/04:30am 16.8 13.9 1.4 35 7.0 WNW 6 9 3 5 1015.7 - 0.0
21/04:00am 17.3 14.2 0.3 31 7.6 WNW 6 7 3 4 1015.6 - 0.0
21/03:30am 18.6 15.4 0.9 30 8.1 W 7 11 4 6 1015.5 - 0.0
21/03:00am 19.2 16.0 0.6 28 8.5 WNW 7 13 4 7 1015.6 1014.0 0.0
21/02:30am 20.9 17.4 1.3 27 9.2 WNW 9 13 5 7 1015.9 - 0.0
21/02:00am 20.7 17.3 1.6 28 9.0 WNW 9 11 5 6 1016.2 - 0.0
21/01:30am 21.4 17.3 0.1 24 9.8 WNW 11 15 6 8 1016.4 - 0.0
21/01:00am 18.7 15.4 0.0 28 8.4 NW 7 9 4 5 1016.6 - 0.0
21/12:30am 20.1 16.2 1.2 28 8.8 NW 11 11 6 6 1016.6 - 0.0
21/12:00am 20.7 17.1 0.9 26 9.2 WNW 9 11 5 6 1016.7 1015.0 0.0
 
Date/Time
WST
Temp
°C
App
Temp
°C
Dew
Point
Rel
Hum
%
Delta-T
°C
Wind Press
QNH
hPa
Press
MSL
hPa
Rain
since 9 am
mm
Dir
 
Spd
km/h
Gust
km/h
Spd
kts
Gust
kts
20/11:30pm 20.9 17.2 -0.2 24 9.6 WNW 9 13 5 7 1016.9 - 0.0
20/11:00pm 20.4 17.2 0.7 27 9.1 WNW 7 9 4 5 1017.0 - 0.0
20/10:30pm 20.6 17.6 2.1 29 8.8 WNW 7 9 4 5 1017.0 - 0.0
20/10:00pm 21.7 18.4 0.3 24 9.9 WNW 7 9 4 5 1017.2 - 0.0
20/09:30pm 24.1 20.7 1.8 23 10.8 WNW 9 11 5 6 1017.3 - 0.0
20/09:00pm 25.0 20.9 -0.4 18 11.9 WNW 11 13 6 7 1017.2 1015.6 0.0
20/08:30pm 25.9 21.8 -0.4 18 12.4 WNW 11 13 6 7 1017.1 - 0.0
20/08:00pm 26.2 22.4 -0.5 17 12.6 WNW 9 13 5 7 1016.8 - 0.0
20/07:30pm 26.6 22.4 -0.8 16 12.9 WNW 11 13 6 7 1016.5 - 0.0
20/07:00pm 27.5 23.8 0.1 17 13.2 WNW 9 11 5 6 1016.1 - 0.0
20/06:30pm 29.4 25.7 0.1 15 14.3 WNW 9 13 5 7 1015.7 - 0.0
20/06:00pm 30.8 25.2 -3.0 11 15.8 NNW 17 20 9 11 1015.3 1013.7 0.0
20/05:30pm 31.6 26.0 -3.2 10 16.3 NW 17 26 9 14 1015.3 - 0.0
20/05:00pm 32.3 24.8 -4.7 9 17.0 NNW 26 35 14 19 1015.3 - 0.0
20/04:30pm 32.7 25.1 -5.7 8 17.4 NW 26 39 14 21 1015.1 - 0.0
20/04:00pm 32.9 24.5 -5.6 8 17.5 N 30 44 16 24 1015.1 - 0.0
20/03:47pm 33.4 25.3 -6.9 7 18.0 NNW 28 57 15 31 1014.8 - 0.0
20/03:30pm 33.8 25.0 -6.6 7 18.2 NNW 32 48 17 26 1015.1 - 0.0
20/03:17pm 34.1 26.0 -6.8 7 18.4 N 28 46 15 25 1015.0 - 0.0
20/03:03pm 33.8 24.3 -8.0 6 18.4 N 35 43 19 23 1015.1 - 0.0
20/03:00pm 33.8 23.6 -7.3 7 18.3 NW 39 44 21 24 1015.0 1013.3 0.0
20/02:41pm 34.2 26.0 -7.8 6 18.6 NW 28 48 15 26 1015.0 - 0.0
20/02:30pm 34.1 27.1 -7.5 6 18.5 N 22 30 12 16 1015.1 - 0.0
20/02:00pm 34.5 26.3 -7.9 6 18.8 N 28 48 15 26 1015.2 - 0.0
20/01:43pm 34.2 25.7 -7.1 7 18.5 N 30 48 16 26 1015.4 - 0.0
20/01:30pm 34.2 25.6 -7.8 6 18.6 N 30 46 16 25 1015.6 - 0.0
20/01:00pm 34.2 26.1 -7.1 7 18.5 N 28 50 15 27 1015.9 - 0.0
20/12:30pm 33.3 25.7 -6.0 7 17.8 NNE 26 44 14 24 1016.5 - 0.0
20/12:00pm 32.8 23.8 -6.7 7 17.6 N 33 46 18 25 1016.9 1015.3 0.0
20/11:30am 32.2 24.3 -5.1 9 17.0 NNE 28 46 15 25 1017.4 - 0.0
20/11:29am 31.8 23.9 -4.8 9 16.7 NNE 28 46 15 25 1017.4 - 0.0
20/11:00am 31.4 23.5 -5.0 9 16.5 NNE 28 43 15 23 1017.6 - 0.0
20/10:30am 30.6 23.3 -2.7 11 15.6 NNE 26 41 14 22 1018.0 - 0.0
20/10:00am 29.1 21.9 -2.0 13 14.6 NNE 26 39 14 21 1018.3 - 0.0
20/09:30am 28.0 20.4 -2.2 14 14.0 NNE 28 39 15 21 1018.5 - 0.0
20/09:00am 27.1 19.9 -2.2 14 13.5 NE 26 41 14 22 1018.4 1016.7 0.0
20/08:30am 25.9 17.3 -2.6 15 12.9 ENE 33 46 18 25 1018.3 - 0.0
20/08:00am 25.0 17.1 -1.7 17 12.2 ENE 30 44 16 24 1018.2 - 0.0
20/07:30am 23.3 16.8 -2.7 17 11.5 ENE 22 35 12 19 1017.8 - 0.0
20/07:00am 20.2 15.4 -2.8 21 9.9 ENE 13 19 7 10 1017.7 - 0.0
20/06:30am 19.0 14.2 -2.5 23 9.2 E 13 17 7 9 1017.6 - 0.0
20/06:00am 18.3 13.5 -2.7 24 8.9 E 13 17 7 9 1017.2 1015.6 0.0
20/05:30am 19.3 14.0 -3.5 21 9.6 E 15 20 8 11 1017.0 - 0.0
20/05:00am 19.9 14.1 -4.4 19 10.1 E 17 22 9 12 1016.8 - 0.0
20/04:30am 19.5 14.1 -4.4 19 9.9 E 15 19 8 10 1016.8 - 0.0
20/04:00am 18.9 14.0 -3.6 21 9.4 E 13 17 7 9 1016.6 - 0.0
20/03:30am 18.1 13.6 -3.1 23 8.9 E 11 13 6 7 1016.5 - 0.0
20/03:00am 18.9 14.0 -3.1 22 9.3 E 13 15 7 8 1016.6 1014.9 0.0
20/02:30am 19.4 14.1 -3.8 20 9.7 E 15 17 8 9 1016.8 - 0.0
20/02:00am 19.0 13.7 -3.8 21 9.5 ESE 15 17 8 9 1017.1 - 0.0
20/01:30am 18.7 14.3 -2.7 23 9.1 ESE 11 13 6 7 1017.4 - 0.0
20/01:00am 19.0 14.7 -1.7 24 9.0 ESE 11 11 6 6 1017.6 - 0.0
20/12:30am 19.9 15.1 -2.7 21 9.7 ESE 13 13 7 7 1017.7 - 0.0
20/12:00am 19.7 15.3 -2.3 22 9.5 ESE 11 13 6 7 1018.0 1016.4 0.0
 
Date/Time
WST
Temp
°C
App
Temp
°C
Dew
Point
Rel
Hum
%
Delta-T
°C
Wind Press
QNH
hPa
Press
MSL
hPa
Rain
since 9 am
mm
Dir
 
Spd
km/h
Gust
km/h
Spd
kts
Gust
kts
19/11:30pm 20.1 16.5 0.5 27 9.0 ESE 9 9 5 5 1018.3 - 0.0
19/11:00pm 21.4 18.0 -0.7 23 10.0 ESE 7 9 4 5 1018.6 - 0.0
19/10:30pm 22.9 18.5 -2.8 18 11.3 ESE 11 13 6 7 1018.7 - 0.0
19/10:00pm 23.3 18.4 -3.1 17 11.6 SE 13 15 7 8 1018.8 - 0.0
19/09:30pm 21.5 17.8 -0.1 23 9.9 SSE 9 11 5 6 1018.9 - 0.0
19/09:00pm 21.6 18.2 -0.7 22 10.1 SSE 7 7 4 4 1018.9 1017.3 0.0
19/08:30pm 23.1 19.3 -0.6 20 10.9 SSE 9 11 5 6 1018.8 - 0.0
19/08:00pm 23.7 19.9 -0.5 20 11.2 SSE 9 11 5 6 1018.7 - 0.0
19/07:30pm 24.8 21.3 1.4 21 11.3 SSE 9 11 5 6 1018.5 - 0.0
19/07:00pm 25.9 21.6 -1.7 16 12.7 SSE 11 13 6 7 1018.2 - 0.0
19/06:30pm 26.8 22.9 -1.6 15 13.2 SSE 9 11 5 6 1018.0 - 0.0
19/06:00pm 28.3 23.7 -3.8 12 14.5 SSE 11 17 6 9 1017.7 1016.1 0.0
19/05:30pm 29.4 24.9 -3.6 11 15.1 SE 11 19 6 10 1017.6 - 0.0
19/05:00pm 29.9 25.5 -5.9 9 15.8 S 9 15 5 8 1017.3 - 0.0
19/04:30pm 30.4 25.9 -3.2 11 15.6 SE 11 19 6 10 1017.1 - 0.0
19/04:00pm 29.6 25.2 -2.1 12 14.9 SE 11 22 6 12 1017.0 - 0.0
19/03:30pm 30.0 26.2 -1.0 13 14.9 ESE 9 15 5 8 1017.0 - 0.0
19/03:00pm 30.5 25.7 -2.9 11 15.6 SSE 13 26 7 14 1017.1 1015.5 0.0
19/02:30pm 29.7 24.9 -2.8 12 15.1 S 13 24 7 13 1017.3 - 0.0
19/02:00pm 30.5 25.3 -2.4 12 15.5 E 15 32 8 17 1017.5 - 0.0
19/01:30pm 29.2 24.9 -1.8 13 14.6 SSE 11 17 6 9 1018.0 - 0.0
19/01:00pm 29.0 24.7 -1.4 14 14.4 SSE 11 20 6 11 1018.5 - 0.0
19/12:30pm 28.0 24.1 1.2 17 13.2 S 11 15 6 8 1019.0 - 0.0
19/12:00pm 28.3 24.7 0.7 16 13.5 ESE 9 17 5 9 1019.4 1017.8 0.0
19/11:30am 27.6 23.4 1.4 18 12.9 SSE 13 19 7 10 1019.7 - 0.0
19/11:00am 27.8 22.9 2.2 19 12.8 SE 17 22 9 12 1020.2 - 0.0
19/10:30am 26.2 21.1 2.8 22 11.7 SSE 19 30 10 16 1020.6 - 0.0
19/10:00am 25.5 20.0 4.1 25 10.9 SSE 22 32 12 17 1020.8 - 0.0
19/09:30am 23.7 18.8 4.9 29 9.6 SSE 20 28 11 15 1020.9 - 0.0
19/09:00am 22.3 17.5 5.5 33 8.6 SSE 20 30 11 16 1021.1 1019.5 0.0
19/08:30am 21.1 15.5 5.3 35 8.0 SSE 24 35 13 19 1021.0 - 0.0
19/08:00am 20.1 15.3 5.7 39 7.3 SSE 20 28 11 15 1020.8 - 0.0
19/07:30am 18.7 14.1 5.8 42 6.5 S 19 26 10 14 1020.6 - 0.0
19/07:00am 17.3 13.5 5.6 46 5.8 S 15 19 8 10 1020.2 - 0.0
19/06:30am 15.8 11.7 4.6 47 5.4 S 15 17 8 9 1019.8 - 0.0
19/06:00am 15.3 11.5 4.1 47 5.3 S 13 17 7 9 1019.4 1017.8 0.0
19/05:30am 15.2 11.4 3.7 46 5.4 S 13 15 7 8 1019.1 - 0.0
19/05:00am 15.8 11.9 3.5 43 5.8 S 13 15 7 8 1018.7 - 0.0
19/04:30am 16.7 12.4 3.4 41 6.3 S 15 19 8 10 1018.3 - 0.0
19/04:00am 17.2 12.5 3.0 38 6.7 S 17 22 9 12 1018.0 - 0.0
19/03:30am 17.4 12.5 2.1 36 7.1 S 17 24 9 13 1017.8 - 0.0
19/03:00am 17.5 12.5 1.3 33 7.4 S 17 20 9 11 1017.8 1016.2 0.0
19/02:30am 18.1 13.4 1.0 31 7.8 SSW 15 19 8 10 1017.7 - 0.0
19/02:00am 19.0 13.9 0.5 29 8.4 SSW 17 22 9 12 1017.8 - 0.0
19/01:30am 19.9 14.3 -0.3 25 9.1 SSW 19 28 10 15 1017.7 - 0.0
19/01:00am 20.4 15.0 -1.6 22 9.7 W 17 22 9 12 1017.8 - 0.0
19/12:30am 19.5 15.3 -1.1 25 9.1 W 11 13 6 7 1017.7 - 0.0
19/12:00am 20.1 15.9 -0.6 25 9.3 W 11 13 6 7 1017.9 1016.3 0.0
 
Date/Time
WST
Temp
°C
App
Temp
°C
Dew
Point
Rel
Hum
%
Delta-T
°C
Wind Press
QNH
hPa
Press
MSL
hPa
Rain
since 9 am
mm
Dir
 
Spd
km/h
Gust
km/h
Spd
kts
Gust
kts
18/11:30pm 19.7 16.7 4.0 35 7.7 W 9 9 5 5 1018.0 - 0.0
18/11:00pm 21.2 17.8 1.8 27 9.2 W 9 13 5 7 1018.2 - 0.0
18/10:30pm 22.0 18.1 0.9 24 9.9 W 11 13 6 7 1018.3 - 0.0
18/10:00pm 22.7 19.2 1.2 24 10.2 WNW 9 13 5 7 1018.2 - 0.0
18/09:30pm 23.4 19.4 0.4 22 10.8 WNW 11 13 6 7 1018.0 - 0.0
18/09:00pm 23.9 20.2 -0.1 20 11.2 WNW 9 13 5 7 1017.8 1016.2 0.0
18/08:30pm 23.6 19.7 -1.5 19 11.4 NW 9 13 5 7 1017.8 - 0.0
18/08:00pm 24.3 20.4 -1.6 18 11.8 NW 9 11 5 6 1017.5 - 0.0
18/07:30pm 25.4 20.6 -2.9 15 12.7 NW 13 15 7 8 1017.1 - 0.0
18/07:00pm 26.4 21.1 -3.6 13 13.4 NW 15 20 8 11 1016.7 - 0.0
18/06:30pm 27.0 21.3 -3.9 13 13.8 NW 17 22 9 12 1016.3 - 0.0
18/06:00pm 27.8 21.9 -5.8 10 14.6 NW 17 26 9 14 1015.8 1014.2 0.0
18/05:30pm 28.6 21.8 -5.5 10 15.0 NW 22 32 12 17 1015.4 - 0.0
18/05:00pm 29.7 23.1 -6.5 9 15.8 WNW 20 28 11 15 1015.1 - 0.0
18/04:30pm 29.8 23.2 -7.4 8 16.0 WNW 20 28 11 15 1015.0 - 0.0
18/04:00pm 30.3 23.3 -7.5 8 16.3 WNW 22 33 12 18 1014.7 - 0.0

Other Formats:

Comma delimited format used in spreadsheet applications
http://www.bom.gov.au/fwo/IDW60801/IDW60801.94430.axf

JavaScript Object Notation format (JSON) in row-major order
http://www.bom.gov.au/fwo/IDW60801/IDW60801.94430.json